• Join FlightAware (Why Join?)
  • Login
  • US Flag 
07:31PM EDT


 

Airport Tracker/Info


-or-


 

Live Flight TrackerFlight Track Log ✈ N56LW ✈ 01-May-2014 ✈ KLEE - KDTS

Flight Track Log - Related Links

Times and Time Zones

All times are in EDT time to prevent confusion due to time zone crossing. See the N56LW flight status page for this flight to view local times or setup timezone preferences in your user account.

Time Position Orientation Groundspeed Altitude Reporting Facility
EDT Latitude Longitude Course Direction KTS MPH feet Rate Location/Type
07:41PM 28.8667 -81.8667 303° West 223 257 3,000  Level Orlando TRACON
07:42PM 28.8956 -81.9178 303° West 248 285 3,100 300 Climbing Jacksonville Center
07:43PM 28.9375 -81.9650 315° West 265 305 3,500 1,800 Climbing Jacksonville Center
07:45PM 29.0236 -82.0519 319° Northwest 277 319 7,700 2,280 Climbing Jacksonville Center
07:46PM 29.0658 -82.1275 303° West 277 319 9,700 1,200 Climbing Jacksonville Center
07:47PM 29.1081 -82.2008 303° West 282 325 10,100 1,260 Climbing Jacksonville Center
07:48PM 29.1564 -82.2814 305° West 294 338 12,300 2,160 Climbing Jacksonville Center
07:49PM 29.1903 -82.3644 295° West 294 338 14,500 1,980 Climbing Jacksonville Center
07:50PM 29.2303 -82.4522 298° West 294 338 16,300 1,860 Climbing Jacksonville Center
07:51PM 29.2639 -82.5403 294° West 300 345 18,300 1,920 Climbing Jacksonville Center
07:52PM 29.3017 -82.6258 297° West 300 345 20,200 1,680 Climbing Jacksonville Center
07:53PM 29.3375 -82.7139 295° West 300 345 21,700 1,560 Climbing Jacksonville Center
07:54PM 29.3750 -82.8019 296° West 300 345 23,400 1,680 Climbing Jacksonville Center
07:55PM 29.4106 -82.8903 295° West 300 345 25,100 1,140 Climbing Jacksonville Center
07:56PM 29.4461 -82.9783 295° West 300 345 25,700 420 Climbing Jacksonville Center
07:57PM 29.4897 -83.0811 296° West 314 361 26,000 120 Climbing Jacksonville Center
07:58PM 29.5292 -83.1767 295° West 337 388 26,000  Level Jacksonville Center
07:59PM 29.5667 -83.2697 295° West 346 398 26,000  Level Jacksonville Center
08:00PM 29.6122 -83.3800 295° West 346 398 26,000  Level Jacksonville Center
08:01PM 29.6533 -83.4806 295° West 346 398 26,000  Level Jacksonville Center
08:02PM 29.6947 -83.5836 295° West 346 398 26,000  Level Jacksonville Center
08:03PM 29.7381 -83.6867 296° West 346 398 26,000  Level Jacksonville Center
08:04PM 29.7811 -83.7875 296° West 346 398 26,000  Level Jacksonville Center
08:05PM 29.8283 -83.8861 299° West 351 404 26,000  Level Jacksonville Center
08:06PM 29.8756 -83.9897 298° West 351 404 26,000  Level Jacksonville Center
08:07PM 29.9206 -84.0883 298° West 351 404 26,000  Level Jacksonville Center
08:08PM 29.9614 -84.1800 297° West 351 404 26,000  Level Jacksonville Center
08:09PM 30.0064 -84.2814 297° West 351 404 26,000  Level Jacksonville Center
08:10PM 30.0806 -84.3544 320° Northwest 350 403 26,000  Level Jacksonville Center
08:11PM 30.1911 -84.3681 354° North 343 395 26,000 -60 Level Jacksonville Center
08:12PM 30.2717 -84.4392 323° Northwest 356 410 25,900  Descending Jacksonville Center
08:13PM 30.3375 -84.5269 311° West 356 410 26,000  Climbing Jacksonville Center
08:14PM 30.4053 -84.6172 311° West 361 415 26,000  Level Jacksonville Center
08:15PM 30.4708 -84.7050 311° West 366 421 26,000  Level Jacksonville Center
08:16PM 30.5406 -84.7956 312° West 366 421 26,000 -60 Level Jacksonville Center
08:17PM 30.6081 -84.8861 311° West 366 421 25,900  Descending Jacksonville Center
08:18PM 30.6714 -84.9722 311° West 366 421 26,000  Climbing Jacksonville Center
08:19PM 30.7386 -85.0631 311° West 366 421 26,000  Level Jacksonville Center
08:20PM 30.7872 -85.1536 302° West 352 405 26,000  Level Jacksonville Center
08:21PM 30.7917 -85.2600 273° West 323 372 26,000  Level Jacksonville Center
08:22PM 30.7917 -85.3642 270° West 323 372 26,000  Level Jacksonville Center
08:23PM 30.7958 -85.4681 273° West 323 372 26,000  Level Jacksonville Center
08:24PM 30.7978 -85.5697 271° West 323 372 26,000 -180 Level Jacksonville Center
08:25PM 30.8019 -85.6739 273° West 323 372 25,700 -900 Descending Jacksonville Center
08:26PM 30.8036 -85.7875 271° West 328 377 24,300 -1,380 Descending Jacksonville Center
08:27PM 30.8053 -85.8917 271° West 328 377 23,000 -1,320 Descending Jacksonville Center
08:28PM 30.8092 -85.9886 273° West 322 371 21,700 -1,500 Descending Jacksonville Center
08:29PM 30.8131 -86.0903 273° West 322 371 20,100 -1,620 Descending Jacksonville Center
08:30PM 30.8125 -86.1894 270° West 312 359 18,500 -1,620 Descending Jacksonville Center
08:31PM 30.8164 -86.2861 273° West 307 353 16,900 -1,680 Descending Jacksonville Center
08:32PM 30.8200 -86.3831 273° West 307 353 15,200 -2,460 Descending Jacksonville Center
08:33PM 30.8217 -86.4728 271° West 302 348 12,000 -3,420 Descending Jacksonville Center
08:34PM 30.8006 -86.5492 252° West 257 296 8,400 -2,820 Descending Jacksonville Center
08:35PM 30.7336 -86.5586 187° South 215 247 6,400 -2,040 Descending Jacksonville Center
08:37PM 30.5739 -86.5168 168° South  Level Estimated
08:44PM 30.4000 -86.4667 157° South  Level FlightAware Approximate
08:45PM 30.4000 -86.4715 157° South  Level Estimated
08:46PM 30.4000 -86.4667 157° South  Level FlightAware Approximate
08:47PM 30.4000 -86.4715 157° South  Level Estimated
08:48PM 30.4000 -86.4667 157° South  Level FlightAware Approximate
08:49PM 30.4000 -86.4715 157° South  Level Estimated